Flight Instructor Certification

REQUIREMENTS:
  • 18 years of age
  • Commercial Pilot CertificateRead, speak & understand English
  • 2nd Class Medical Certificate
  • Pass Written, Oral & Flight Test
AVERAGE TRAINING ESTIMATE:

Flight Training including:

  • 10 Hours in a Piper Arrow
  • 5 Hours in Diamond Katana DA20

  35 Hours of Instruction

MATERIALS:
Curriculum & Charts

**Please Note: Times are ESTIMATED and TOTAL HOURS each student may need to achieve competency may vary per individual.

NOAA Weather

Smyrna, TN

Last Updated on Oct 22 2017, 9:56 am CDT

Current Conditions: Fair

NOAA Icon

Temp: 72°F

Wind: SE at 17mph

Humidity: 66%

Dewpoint: 60.1°F

Your 5-Day Forecast at a Glance

Available data for KMQY from the past 2 hours
SMYRNA, TN
TAF
KMQY 221507Z 2215/2312 15015G25KT P6SM BKN250 FM221800 18014G22KT P6SM BKN120 FM230000 17010G16KT P6SM VCSH BKN040 FM230400 17008KT 3SM -SHRA SCT007 OVC012 FM231000 30008KT 6SM -SHRA OVC007
Pireps (7)
BNA UA /OV SYI/TM 1508/FL350/TP B737/TB MOD/RM ZTLFD
LOZ UA /OV LVT360015/TM 1440/FL300/TP B737/TB LGT-MOD CHOP/RM CONT LGT OCCNL MOD CHOP
BNA UA /OV BNA260010/TM 1400/FL030/TP BE90/TB LGT-MOD SFC-030
CSV UA /OV HCH345005/TM 1358/FL350/TP A320/TB CONS LGT CHOP/RM ZTLFD
ARP UAL1738 3653N 08525W 1352 F349 M50 237/058 TB LGT RM A320 OV 3653N 08525W
BNA UA /OV BNA135040/TM 1350/FL320/TP MD88/TB MOD/RM ZME
CSV UA /OV HCH355045/TM 1348/FL350/TP A321/TB LGT CHOP/RM CONT ZTLFD